Time;durP1;ratioP1;P1;durP2;ratioP2;P2;SDS_P1;SDS_P2;PMS_P1;PMS_P2;Temp;Humidity;BMP_temperature;BMP_pressure;BME280_temperature;BME280_humidity;BME280_pressure;Samples;Min_cycle;Max_cycle;Signal;HPM_P1;HPM_P2
2024/01/11 06:32:56;;;;;;;;;;;;;;;2.97;65.67;97507.75;4230328;27;10269;-61
2024/01/11 06:34:58;;;;;;;;;;;;;;;3.19;64.64;97510.19;4227200;28;5866;-61
2024/01/11 06:37:02;;;;;;;;;;;;;;;3.41;64.14;97503.16;4228089;28;5660;-60
2024/01/11 06:39:05;;;;;;;;;;;;;;;3.58;63.70;97505.13;4224379;28;5694;-61
2024/01/11 06:41:08;;;;;;;;;;;;;;;3.70;63.35;97503.25;4230196;28;5756;-61
2024/01/11 06:43:11;;;;;;;;;;;;;;;3.78;62.51;97500.81;4226058;28;5783;-61
2024/01/11 06:45:14;;;;;;;;;;;;;;;3.85;62.68;97501.94;4227381;28;5787;-60
2024/01/11 06:47:17;;;;;;;;;;;;;;;3.96;62.47;97508.81;4230801;28;5672;-61
2024/01/11 06:49:22;;;;;;;;;;;;;;;3.99;61.79;97514.63;4223007;28;5850;-62
2024/01/11 06:51:25;;;;;;;;;;;;;;;4.01;61.48;97520.53;4230940;28;5749;-63
2024/01/11 06:53:28;;;;;;;;;;;;;;;4.05;60.88;97521.91;4230669;28;5672;-61
2024/01/11 06:55:31;;;;;;;;;;;;;;;4.02;61.07;97521.38;4230917;28;5825;-62
2024/01/11 06:57:34;;;;;;;;;;;;;;;4.03;61.15;97525.63;4231278;28;5657;-61
2024/01/11 06:59:37;;;;;;;;;;;;;;;4.03;59.91;97531.69;4228685;28;5706;-61
2024/01/11 07:01:40;;;;;;;;;;;;;;;4.03;60.13;97525.63;4225304;28;5920;-61
2024/01/11 07:03:43;;;;;;;;;;;;;;;4.03;60.24;97526.47;4226554;28;5813;-62
2024/01/11 07:05:47;;;;;;;;;;;;;;;4.05;59.82;97521.91;4228988;28;5672;-64
2024/01/11 07:07:51;;;;;;;;;;;;;;;4.08;59.74;97526.91;4230235;28;5657;-66
2024/01/11 07:09:55;;;;;;;;;;;;;;;4.11;59.77;97527.59;4222902;28;5797;-64
2024/01/11 07:11:58;;;;;;;;;;;;;;;4.15;59.90;97528.97;4231216;28;5665;-68
2024/01/11 07:14:01;;;;;;;;;;;;;;;4.16;60.05;97526.22;4220370;28;5840;-60
2024/01/11 07:16:04;;;;;;;;;;;;;;;4.19;59.95;97528.59;4229311;28;5853;-72
2024/01/11 07:18:07;;;;;;;;;;;;;;;4.23;59.52;97527.34;4228733;28;5665;-65
2024/01/11 07:20:11;;;;;;;;;;;;;;;4.29;59.60;97532.00;4228932;28;5771;-61
2024/01/11 07:22:16;;;;;;;;;;;;;;;4.35;59.77;97533.28;4228861;28;5668;-63
2024/01/11 07:24:19;;;;;;;;;;;;;;;4.36;59.47;97537.53;4224651;28;5658;-61
2024/01/11 07:26:22;;;;;;;;;;;;;;;4.30;59.38;97531.09;4230043;28;6357;-61
2024/01/11 07:28:26;;;;;;;;;;;;;;;4.34;59.13;97534.25;4230130;28;5775;-61
2024/01/11 07:30:28;;;;;;;;;;;;;;;4.36;59.39;97534.94;4228073;28;5798;-61
2024/01/11 07:32:30;;;;;;;;;;;;;;;4.46;59.47;97532.31;4223325;28;5676;-61
2024/01/11 07:34:34;;;;;;;;;;;;;;;4.46;59.34;97543.63;4218677;28;5760;-61
2024/01/11 07:36:37;;;;;;;;;;;;;;;4.46;59.00;97541.00;4219539;28;5674;-63
2024/01/11 07:38:40;;;;;;;;;;;;;;;4.45;58.51;97541.16;4218582;28;5665;-61
2024/01/11 07:40:44;;;;;;;;;;;;;;;4.41;58.83;97542.34;4217775;28;5784;-62
2024/01/11 07:42:46;;;;;;;;;;;;;;;4.35;58.15;97551.59;4218218;28;5673;-62
2024/01/11 07:44:49;;;;;;;;;;;;;;;4.31;58.59;97543.19;4217216;28;5829;-62
2024/01/11 07:46:52;;;;;;;;;;;;;;;4.36;58.95;97548.00;4217070;28;5669;-62
2024/01/11 07:48:58;;;;;;;;;;;;;;;4.43;59.10;97546.53;4217763;28;5668;-61
2024/01/11 07:51:02;;;;;;;;;;;;;;;4.52;58.87;97552.72;4217502;28;5785;-72
2024/01/11 07:53:06;;;;;;;;;;;;;;;4.55;57.87;97552.47;4211914;28;5752;-60
2024/01/11 07:55:12;;;;;;;;;;;;;;;4.51;58.25;97557.13;4218053;28;5669;-62
2024/01/11 07:57:15;;;;;;;;;;;;;;;4.56;58.40;97562.78;4217687;28;5776;-62
2024/01/11 07:59:18;;;;;;;;;;;;;;;4.62;58.34;97564.84;4216955;28;5676;-61
2024/01/11 08:01:20;;;;;;;;;;;;;;;4.62;58.08;97564.03;4209527;28;5701;-61
2024/01/11 08:03:23;;;;;;;;;;;;;;;4.65;58.02;97567.22;4212237;28;5686;-61
2024/01/11 08:05:26;;;;;;;;;;;;;;;4.65;58.22;97563.78;4218178;28;5689;-61
2024/01/11 08:07:29;;;;;;;;;;;;;;;4.68;58.07;97558.25;4211029;28;5694;-62
2024/01/11 08:09:32;;;;;;;;;;;;;;;4.70;57.93;97565.97;4216724;28;5657;-60
2024/01/11 08:11:37;;;;;;;;;;;;;;;4.71;57.94;97573.69;4217187;28;5672;-61
2024/01/11 08:13:44;;;;;;;;;;;;;;;4.72;57.89;97570.09;4218276;28;5771;-62
2024/01/11 08:15:47;;;;;;;;;;;;;;;4.69;57.10;97583.47;4218430;28;5944;-61
2024/01/11 08:17:50;;;;;;;;;;;;;;;4.70;57.57;97584.28;4218311;28;5778;-60
2024/01/11 08:19:55;;;;;;;;;;;;;;;4.70;57.63;97579.88;4218214;28;5827;-61
2024/01/11 08:21:58;;;;;;;;;;;;;;;4.75;57.09;97579.47;4214123;28;5773;-66
2024/01/11 08:24:02;;;;;;;;;;;;;;;4.70;57.19;97586.91;4217866;28;5764;-60
2024/01/11 08:26:05;;;;;;;;;;;;;;;4.69;57.00;97586.09;4217098;28;5693;-60
2024/01/11 08:28:10;;;;;;;;;;;;;;;4.67;57.10;97582.78;4218555;28;5768;-66
2024/01/11 08:30:13;;;;;;;;;;;;;;;4.70;57.32;97592.16;4217476;28;5665;-62
2024/01/11 08:32:16;;;;;;;;;;;;;;;4.71;56.95;97593.81;4218072;28;5880;-61
2024/01/11 08:34:33;;;;;;;;;;;;;;;4.74;57.27;97598.75;4215438;28;6674;-61
2024/01/11 08:36:38;;;;;;;;;;;;;;;4.74;56.96;97593.53;4210010;28;5698;-62
2024/01/11 08:38:41;;;;;;;;;;;;;;;4.75;57.11;97596.00;4214585;28;5692;-61
2024/01/11 08:40:44;;;;;;;;;;;;;;;4.79;57.07;97586.09;4211557;28;5863;-61
2024/01/11 08:42:47;;;;;;;;;;;;;;;4.81;56.99;97589.41;4215763;28;5661;-66
2024/01/11 08:44:51;;;;;;;;;;;;;;;4.86;56.87;97600.28;4212960;28;5657;-65
2024/01/11 08:46:54;;;;;;;;;;;;;;;4.89;56.17;97602.66;4213700;28;5110;-58
2024/01/11 08:48:57;;;;;;;;;;;;;;;4.89;56.53;97602.66;4209723;28;7711;-65
2024/01/11 08:50:59;;;;;;;;;;;;;;;4.92;56.61;97590.09;4214435;28;5781;-59
2024/01/11 08:53:03;;;;;;;;;;;;;;;4.95;56.76;97586.38;4217592;28;5763;-60
2024/01/11 08:55:07;;;;;;;;;;;;;;;4.96;56.67;97593.25;4216210;28;5875;-60
2024/01/11 08:57:10;;;;;;;;;;;;;;;4.97;56.28;97594.91;4217572;28;5657;-59
2024/01/11 08:59:13;;;;;;;;;;;;;;;4.93;56.17;97598.78;4214289;28;5820;-60
2024/01/11 09:01:18;;;;;;;;;;;;;;;4.91;56.35;97595.47;4210742;28;6050;-61
2024/01/11 09:03:21;;;;;;;;;;;;;;;4.85;56.13;97596.00;4215084;28;5680;-61
2024/01/11 09:05:24;;;;;;;;;;;;;;;4.87;56.37;97583.59;4214667;28;5681;-61
2024/01/11 09:07:27;;;;;;;;;;;;;;;4.91;56.54;97596.31;4213496;28;5668;-61
2024/01/11 09:09:31;;;;;;;;;;;;;;;4.97;56.57;97600.16;4216084;28;5692;-61
2024/01/11 09:11:42;;;;;;;;;;;;;;;4.96;55.97;97601.94;4214283;28;6529;-59
2024/01/11 09:13:46;;;;;;;;;;;;;;;4.92;56.10;97600.56;4216172;28;5698;-58
2024/01/11 09:15:50;;;;;;;;;;;;;;;4.82;55.72;97604.97;4217722;28;5700;-58
2024/01/11 09:17:54;;;;;;;;;;;;;;;4.78;55.75;97606.22;4209055;28;5728;-58
2024/01/11 09:19:57;;;;;;;;;;;;;;;4.82;55.90;97604.97;4211353;28;5672;-66
2024/01/11 09:22:00;;;;;;;;;;;;;;;4.83;55.71;97603.19;4215682;28;5882;-61
2024/01/11 09:24:03;;;;;;;;;;;;;;;4.84;55.57;97610.91;4207066;28;6858;-63
2024/01/11 09:26:07;;;;;;;;;;;;;;;4.86;55.86;97608.97;4214044;28;5710;-63
2024/01/11 09:28:10;;;;;;;;;;;;;;;4.90;55.84;97609.53;4214243;28;5802;-62
2024/01/11 09:30:14;;;;;;;;;;;;;;;4.95;56.18;97599.47;4216000;28;6126;-62
2024/01/11 09:32:17;;;;;;;;;;;;;;;5.03;56.08;97599.59;4215948;28;5653;-62
2024/01/11 09:34:22;;;;;;;;;;;;;;;5.08;55.81;97607.88;4216909;28;5767;-61
2024/01/11 09:36:25;;;;;;;;;;;;;;;5.13;56.07;97610.09;4217010;28;5664;-60
2024/01/11 09:38:27;;;;;;;;;;;;;;;5.20;55.84;97606.75;4216833;28;5931;-61
2024/01/11 09:40:31;;;;;;;;;;;;;;;5.26;56.03;97611.44;4215382;28;5764;-61
2024/01/11 09:42:34;;;;;;;;;;;;;;;5.32;55.64;97599.56;4216016;28;5681;-60
2024/01/11 09:44:39;;;;;;;;;;;;;;;5.34;55.57;97605.50;4214766;28;5658;-62
2024/01/11 09:46:42;;;;;;;;;;;;;;;5.38;55.57;97616.53;4216199;28;5294;-59
2024/01/11 09:48:47;;;;;;;;;;;;;;;5.40;55.63;97610.19;4212960;28;7719;-60
2024/01/11 09:50:54;;;;;;;;;;;;;;;5.38;55.55;97606.06;4216760;28;5669;-60
2024/01/11 09:52:57;;;;;;;;;;;;;;;5.38;55.50;97608.66;4208618;28;5677;-60
2024/01/11 09:55:00;;;;;;;;;;;;;;;5.44;55.65;97605.50;4211575;28;5676;-60
2024/01/11 09:57:05;;;;;;;;;;;;;;;5.47;55.21;97613.06;4214984;28;5668;-61
2024/01/11 09:59:10;;;;;;;;;;;;;;;5.39;54.43;97613.78;4215069;28;5687;-59
2024/01/11 10:01:16;;;;;;;;;;;;;;;5.30;55.01;97606.75;4213871;28;5669;-62
2024/01/11 10:03:20;;;;;;;;;;;;;;;5.30;55.07;97616.41;4216156;28;5851;-62
2024/01/11 10:05:23;;;;;;;;;;;;;;;5.35;54.94;97608.97;4216634;28;5070;-62
2024/01/11 10:07:32;;;;;;;;;;;;;;;5.31;54.43;97613.63;4212367;28;7865;-65
2024/01/11 10:09:36;;;;;;;;;;;;;;;5.28;54.75;97613.94;4211660;28;5678;-65
2024/01/11 10:11:39;;;;;;;;;;;;;;;5.28;54.49;97613.09;4214494;28;5692;-62
2024/01/11 10:13:43;;;;;;;;;;;;;;;5.21;54.82;97611.06;4216334;28;5819;-62
2024/01/11 10:15:47;;;;;;;;;;;;;;;5.24;54.47;97610.78;4216764;28;5780;-63
2024/01/11 10:17:50;;;;;;;;;;;;;;;5.20;54.25;97617.25;4209642;28;6343;-62
2024/01/11 10:19:55;;;;;;;;;;;;;;;5.15;54.46;97611.59;4211587;28;5747;-63
2024/01/11 10:21:59;;;;;;;;;;;;;;;5.13;54.30;97610.91;4211658;28;5833;-70
2024/01/11 10:24:04;;;;;;;;;;;;;;;5.10;54.39;97605.13;4208978;28;5690;-73
2024/01/11 10:26:08;;;;;;;;;;;;;;;4.99;54.49;97603.47;4216267;28;5842;-75
2024/01/11 10:28:14;;;;;;;;;;;;;;;4.99;54.07;97608.72;4214608;28;7363;-61
2024/01/11 10:30:19;;;;;;;;;;;;;;;4.93;54.55;97606.63;4216773;28;5088;-60
2024/01/11 10:32:23;;;;;;;;;;;;;;;4.87;54.36;97601.94;4216697;28;5797;-60
2024/01/11 10:34:26;;;;;;;;;;;;;;;4.83;54.33;97608.44;4216474;28;6378;-65
2024/01/11 10:36:31;;;;;;;;;;;;;;;4.82;54.64;97604.16;4216613;28;5828;-59
2024/01/11 10:38:38;;;;;;;;;;;;;;;4.85;54.65;97606.50;4216223;28;5672;-63
2024/01/11 10:40:44;;;;;;;;;;;;;;;4.89;54.50;97611.34;4214839;28;5826;-67
2024/01/11 10:42:52;;;;;;;;;;;;;;;4.89;54.27;97618.38;4214740;28;5665;-68
2024/01/11 10:44:59;;;;;;;;;;;;;;;4.89;54.46;97605.28;4208954;28;5673;-65
2024/01/11 10:47:06;;;;;;;;;;;;;;;4.89;54.76;97611.34;4215657;28;5665;-63
2024/01/11 10:49:12;;;;;;;;;;;;;;;4.95;54.70;97615.19;4212099;28;5779;-63
2024/01/11 10:51:22;;;;;;;;;;;;;;;4.96;54.45;97601.94;4217159;28;8019;-63
2024/01/11 10:53:32;;;;;;;;;;;;;;;4.98;54.38;97604.41;4217494;28;5661;-61
2024/01/11 10:55:35;;;;;;;;;;;;;;;4.94;54.43;97597.81;4216315;28;5761;-64
2024/01/11 10:57:41;;;;;;;;;;;;;;;5.00;54.33;97599.06;4215618;28;5772;-66
2024/01/11 10:59:46;;;;;;;;;;;;;;;5.06;54.02;97607.19;4216365;28;5728;-65
2024/01/11 11:01:49;;;;;;;;;;;;;;;5.05;54.16;97613.41;4215488;28;5669;-65
2024/01/11 11:03:56;;;;;;;;;;;;;;;5.04;53.97;97598.63;4215647;28;5732;-65
2024/01/11 11:06:01;;;;;;;;;;;;;;;5.04;54.20;97605.66;4220843;28;5748;-72
2024/01/11 11:08:05;;;;;;;;;;;;;;;5.04;54.16;97603.88;4216910;28;5743;-73
2024/01/11 11:10:11;;;;;;;;;;;;;;;5.06;54.30;97606.34;4218468;28;5653;-59
2024/01/11 11:12:15;;;;;;;;;;;;;;;5.11;54.51;97596.31;4217477;28;5796;-58
2024/01/11 11:14:21;;;;;;;;;;;;;;;5.19;54.14;97593.78;4218068;28;5700;-59
2024/01/11 11:16:24;;;;;;;;;;;;;;;5.19;53.60;97599.84;4218399;28;6142;-59
2024/01/11 11:18:28;;;;;;;;;;;;;;;5.10;53.62;97603.34;4219269;28;6257;-58
2024/01/11 11:20:32;;;;;;;;;;;;;;;4.99;53.88;97598.25;4213531;28;5711;-59
2024/01/11 11:22:36;;;;;;;;;;;;;;;4.93;53.89;97604.03;4216294;28;5676;-59
2024/01/11 11:24:39;;;;;;;;;;;;;;;4.89;54.36;97605.28;4215357;28;5737;-58
2024/01/11 11:26:42;;;;;;;;;;;;;;;4.91;54.25;97596.31;4215081;28;5904;-58
2024/01/11 11:28:46;;;;;;;;;;;;;;;4.84;54.19;97599.59;4216067;28;5665;-58
2024/01/11 11:30:52;;;;;;;;;;;;;;;4.86;54.50;97587.19;4212475;28;5764;-58
2024/01/11 11:32:55;;;;;;;;;;;;;;;4.89;54.28;97590.38;4209306;28;5771;-58
2024/01/11 11:34:58;;;;;;;;;;;;;;;4.93;53.95;97588.28;4217999;28;5673;-58
2024/01/11 11:37:04;;;;;;;;;;;;;;;4.91;53.75;97580.59;4217956;28;5513;-58
2024/01/11 11:39:07;;;;;;;;;;;;;;;4.87;54.10;97583.59;4215291;28;7870;-58
2024/01/11 11:41:10;;;;;;;;;;;;;;;4.84;54.23;97583.88;4217981;28;5681;-57
2024/01/11 11:43:14;;;;;;;;;;;;;;;4.77;54.29;97588.88;4218466;28;5737;-59
2024/01/11 11:45:26;;;;;;;;;;;;;;;4.79;54.24;97588.72;4216309;28;5611;-58
2024/01/11 11:47:38;;;;;;;;;;;;;;;4.75;54.01;97580.28;4217907;28;5133;-58
2024/01/11 11:50:06;;;;;;;;;;;;;;;4.65;54.26;97593.41;4217018;28;5700;-60
2024/01/11 11:52:16;;;;;;;;;;;;;;;4.55;54.49;97594.34;4218033;28;5792;-58
2024/01/11 11:54:20;;;;;;;;;;;;;;;4.59;54.75;97580.84;4214963;28;5793;-59
2024/01/11 11:56:23;;;;;;;;;;;;;;;4.64;54.41;97589.13;4218396;28;5769;-60
2024/01/11 11:58:26;;;;;;;;;;;;;;;4.65;54.83;97584.72;4218549;28;5708;-59
2024/01/11 12:00:33;;;;;;;;;;;;;;;4.73;54.82;97587.47;4218173;28;5093;-58
2024/01/11 12:02:38;;;;;;;;;;;;;;;4.85;54.73;97585.53;4218201;28;7722;-59
2024/01/11 12:04:41;;;;;;;;;;;;;;;4.89;54.39;97582.50;4216047;28;5664;-59
2024/01/11 12:06:45;;;;;;;;;;;;;;;4.95;54.39;97583.75;4216001;28;5804;-59
2024/01/11 12:08:49;;;;;;;;;;;;;;;4.92;54.31;97586.66;4211760;28;5790;-58
2024/01/11 12:10:53;;;;;;;;;;;;;;;4.94;54.42;97580.28;4210125;28;7169;-59
2024/01/11 12:12:55;;;;;;;;;;;;;;;4.99;54.43;97582.50;4212984;28;5276;-58
2024/01/11 12:14:58;;;;;;;;;;;;;;;5.00;54.24;97578.94;4212237;28;7702;-62
2024/01/11 12:17:02;;;;;;;;;;;;;;;4.93;54.07;97575.19;4216989;28;5702;-62
2024/01/11 12:19:07;;;;;;;;;;;;;;;4.87;54.31;97580.97;4213432;28;5702;-61
2024/01/11 12:21:10;;;;;;;;;;;;;;;4.94;54.42;97587.31;4210299;28;5783;-60
2024/01/11 12:23:13;;;;;;;;;;;;;;;5.00;54.16;97586.78;4214744;28;5832;-60
2024/01/11 12:25:16;;;;;;;;;;;;;;;4.99;54.31;97585.13;4214628;28;5747;-61
2024/01/11 12:27:20;;;;;;;;;;;;;;;5.00;54.33;97584.16;4218095;28;5661;-60
2024/01/11 12:29:24;;;;;;;;;;;;;;;5.01;53.84;97575.34;4216066;28;5673;-61
2024/01/11 12:31:29;;;;;;;;;;;;;;;4.94;54.13;97569.00;4215851;28;6046;-60
2024/01/11 12:33:34;;;;;;;;;;;;;;;4.93;54.46;97572.56;4216892;28;6357;-60
2024/01/11 12:35:41;;;;;;;;;;;;;;;4.99;54.28;97566.78;4213661;28;5851;-61
2024/01/11 12:37:53;;;;;;;;;;;;;;;5.04;54.15;97568.97;4215661;28;6038;-60
2024/01/11 12:39:59;;;;;;;;;;;;;;;5.06;54.11;97567.88;4216293;28;5673;-60
2024/01/11 12:42:02;;;;;;;;;;;;;;;5.03;54.02;97567.34;4212963;28;6046;-60
2024/01/11 12:44:06;;;;;;;;;;;;;;;4.99;54.24;97571.22;4215028;28;5943;-61
2024/01/11 12:46:08;;;;;;;;;;;;;;;5.03;54.20;97567.34;4209782;28;5187;-62
2024/01/11 12:48:14;;;;;;;;;;;;;;;4.96;54.08;97567.06;4213215;28;5925;-61
2024/01/11 12:50:17;;;;;;;;;;;;;;;4.90;54.32;97565.00;4216310;28;5662;-61
2024/01/11 12:52:24;;;;;;;;;;;;;;;4.90;54.37;97562.38;4217622;28;5689;-62
2024/01/11 12:54:27;;;;;;;;;;;;;;;4.90;54.32;97557.13;4215203;28;5120;-62
2024/01/11 12:56:30;;;;;;;;;;;;;;;4.95;54.31;97552.28;4212597;28;5657;-61
2024/01/11 12:58:33;;;;;;;;;;;;;;;5.00;54.41;97560.59;4216711;28;5653;-61
2024/01/11 13:00:37;;;;;;;;;;;;;;;5.06;53.93;97557.38;4215733;28;5808;-61
2024/01/11 13:02:42;;;;;;;;;;;;;;;5.03;54.41;97556.84;4217599;28;5685;-61
2024/01/11 13:04:46;;;;;;;;;;;;;;;5.03;54.09;97556.84;4216944;28;5759;-61
2024/01/11 13:06:49;;;;;;;;;;;;;;;4.99;54.36;97553.69;4217091;28;5787;-61
2024/01/11 13:08:53;;;;;;;;;;;;;;;4.98;53.89;97557.25;4215425;28;5673;-61
2024/01/11 13:10:56;;;;;;;;;;;;;;;4.92;54.10;97544.72;4209694;28;5749;-60
2024/01/11 13:13:01;;;;;;;;;;;;;;;4.84;54.21;97553.25;4211927;28;5687;-61
2024/01/11 13:15:11;;;;;;;;;;;;;;;4.84;54.24;97552.44;4214027;28;5771;-60
2024/01/11 13:17:15;;;;;;;;;;;;;;;4.81;54.25;97556.16;4214796;28;5676;-61
2024/01/11 13:19:18;;;;;;;;;;;;;;;4.76;54.33;97557.56;4212240;28;5690;-61
2024/01/11 13:21:29;;;;;;;;;;;;;;;4.72;54.64;97558.78;4216979;28;5666;-60
2024/01/11 13:23:33;;;;;;;;;;;;;;;4.62;54.42;97557.00;4216697;28;5654;-60
2024/01/11 13:25:37;;;;;;;;;;;;;;;4.64;54.76;97552.47;4211609;28;5754;-60
2024/01/11 13:27:40;;;;;;;;;;;;;;;4.73;54.69;97555.19;4215060;28;5767;-60
2024/01/11 13:29:44;;;;;;;;;;;;;;;4.67;54.58;97556.59;4216025;28;5869;-61
2024/01/11 13:31:47;;;;;;;;;;;;;;;4.67;54.95;97557.41;4215180;28;5665;-61
2024/01/11 13:33:49;;;;;;;;;;;;;;;4.70;54.77;97555.47;4208979;28;5705;-61
2024/01/11 13:35:53;;;;;;;;;;;;;;;4.70;54.87;97556.31;4215933;28;5668;-60
2024/01/11 13:37:57;;;;;;;;;;;;;;;4.66;54.82;97554.94;4207881;28;5816;-60
2024/01/11 13:39:59;;;;;;;;;;;;;;;4.67;54.95;97556.59;4215078;28;5778;-60
2024/01/11 13:42:09;;;;;;;;;;;;;;;4.71;54.72;97557.97;4212418;28;5816;-60
2024/01/11 13:44:12;;;;;;;;;;;;;;;4.72;54.83;97558.78;4214683;28;5773;-60
2024/01/11 13:46:19;;;;;;;;;;;;;;;4.70;54.58;97558.09;4215875;28;5672;-60
2024/01/11 13:48:22;;;;;;;;;;;;;;;4.68;54.73;97564.31;4216143;28;5873;-60
2024/01/11 13:50:25;;;;;;;;;;;;;;;4.69;54.64;97552.03;4215737;28;5673;-60
2024/01/11 13:52:28;;;;;;;;;;;;;;;4.68;54.73;97563.47;4211655;28;5705;-60
2024/01/11 13:54:31;;;;;;;;;;;;;;;4.67;54.71;97556.59;4211585;28;5745;-61
2024/01/11 13:56:34;;;;;;;;;;;;;;;4.67;54.84;97560.03;4213927;28;5827;-60
2024/01/11 13:58:39;;;;;;;;;;;;;;;4.71;54.74;97565.00;4214420;28;5696;-60
2024/01/11 14:00:41;;;;;;;;;;;;;;;4.77;54.82;97574.94;4214811;28;6064;-60
2024/01/11 14:02:45;;;;;;;;;;;;;;;4.83;54.82;97567.34;4211283;28;5742;-60
2024/01/11 14:04:48;;;;;;;;;;;;;;;4.88;54.68;97575.63;4214054;28;5670;-60
2024/01/11 14:06:52;;;;;;;;;;;;;;;4.90;54.54;97583.34;4214293;28;5678;-60
2024/01/11 14:08:55;;;;;;;;;;;;;;;4.84;54.47;97583.88;4206869;28;5816;-61
2024/01/11 14:10:58;;;;;;;;;;;;;;;4.71;54.57;97584.16;4217047;28;5880;-60
2024/01/11 14:13:02;;;;;;;;;;;;;;;4.63;54.83;97581.38;4215659;28;5105;-61
2024/01/11 14:15:11;;;;;;;;;;;;;;;4.58;54.95;97581.81;4214111;28;8393;-61
2024/01/11 14:17:15;;;;;;;;;;;;;;;4.51;55.05;97575.44;4215596;28;5672;-61
2024/01/11 14:19:18;;;;;;;;;;;;;;;4.44;54.93;97582.22;4215823;28;5755;-61
2024/01/11 14:21:21;;;;;;;;;;;;;;;4.35;55.23;97586.47;4214289;28;5940;-61
2024/01/11 14:23:24;;;;;;;;;;;;;;;4.24;55.36;97588.38;4216259;28;5664;-61
2024/01/11 14:25:29;;;;;;;;;;;;;;;4.20;55.51;97579.13;4215761;28;5784;-61
2024/01/11 14:27:32;;;;;;;;;;;;;;;4.24;55.54;97591.81;4216201;28;5684;-61
2024/01/11 14:29:34;;;;;;;;;;;;;;;4.24;55.34;97591.81;4213087;28;6362;-62
2024/01/11 14:31:39;;;;;;;;;;;;;;;4.28;55.29;97592.34;4215187;28;5669;-62
2024/01/11 14:33:42;;;;;;;;;;;;;;;4.30;55.22;97599.13;4215833;28;5853;-62
2024/01/11 14:35:45;;;;;;;;;;;;;;;4.38;55.19;97594.03;4207147;28;5815;-62
2024/01/11 14:37:49;;;;;;;;;;;;;;;4.36;55.23;97589.91;4212811;28;5669;-63
2024/01/11 14:39:51;;;;;;;;;;;;;;;4.36;55.18;97587.28;4207424;28;7325;-61
2024/01/11 14:41:54;;;;;;;;;;;;;;;4.38;55.30;97595.81;4205341;28;5873;-61
2024/01/11 14:44:01;;;;;;;;;;;;;;;4.25;55.45;97609.16;4218690;28;6012;-64
2024/01/11 14:46:05;;;;;;;;;;;;;;;4.20;55.70;97610.53;4219947;28;5759;-58
2024/01/11 14:48:11;;;;;;;;;;;;;;;4.22;55.77;97619.91;4219214;28;5689;-60
2024/01/11 14:50:15;;;;;;;;;;;;;;;4.22;55.60;97613.84;4212928;28;5677;-59
2024/01/11 14:52:18;;;;;;;;;;;;;;;4.12;55.94;97623.44;4219031;28;5123;-59
2024/01/11 14:54:21;;;;;;;;;;;;;;;4.07;55.82;97618.59;4214205;28;5814;-59
2024/01/11 14:56:24;;;;;;;;;;;;;;;4.07;56.07;97605.50;4202535;28;5698;-59
2024/01/11 14:58:26;;;;;;;;;;;;;;;4.12;56.09;97605.13;4215303;28;5724;-60
2024/01/11 15:00:30;;;;;;;;;;;;;;;4.13;55.89;97612.03;4219607;28;5690;-59
2024/01/11 15:02:33;;;;;;;;;;;;;;;4.03;56.01;97614.59;4219870;28;5673;-59
2024/01/11 15:04:38;;;;;;;;;;;;;;;4.01;55.97;97619.97;4218969;28;5830;-60
2024/01/11 15:06:41;;;;;;;;;;;;;;;4.04;56.09;97618.88;4216515;28;7699;-59
2024/01/11 15:08:44;;;;;;;;;;;;;;;4.02;56.21;97624.25;4216633;28;5676;-60
2024/01/11 15:10:47;;;;;;;;;;;;;;;4.02;55.95;97613.78;4217163;28;5887;-60
2024/01/11 15:12:51;;;;;;;;;;;;;;;4.00;56.05;97627.94;4217859;28;5813;-59
2024/01/11 15:14:54;;;;;;;;;;;;;;;3.99;56.34;97637.59;4213503;28;5661;-60
2024/01/11 15:16:58;;;;;;;;;;;;;;;4.01;56.13;97632.22;4217767;28;5791;-59
2024/01/11 15:19:01;;;;;;;;;;;;;;;3.99;56.07;97629.75;4215980;28;5669;-59
2024/01/11 15:21:06;;;;;;;;;;;;;;;3.97;56.27;97626.44;4211003;28;5772;-60
2024/01/11 15:23:09;;;;;;;;;;;;;;;3.95;56.41;97630.13;4213056;28;5777;-60
2024/01/11 15:25:12;;;;;;;;;;;;;;;3.88;56.67;97637.69;4217758;28;6405;-60
2024/01/11 15:27:15;;;;;;;;;;;;;;;3.90;56.49;97635.75;4216985;28;6062;-60
2024/01/11 15:29:17;;;;;;;;;;;;;;;3.94;56.47;97634.53;4211637;28;5661;-61
2024/01/11 15:31:21;;;;;;;;;;;;;;;3.95;56.44;97649.25;4217942;28;5740;-61
2024/01/11 15:33:25;;;;;;;;;;;;;;;3.91;55.97;97642.66;4218064;28;5793;-60
2024/01/11 15:35:28;;;;;;;;;;;;;;;3.75;56.36;97647.53;4212749;28;5830;-60
2024/01/11 15:37:33;;;;;;;;;;;;;;;3.73;56.70;97644.19;4212880;28;5793;-60
2024/01/11 15:39:36;;;;;;;;;;;;;;;3.77;56.46;97643.81;4216611;28;5744;-59
2024/01/11 15:41:38;;;;;;;;;;;;;;;3.81;56.49;97647.00;4210407;28;5777;-59
2024/01/11 15:43:42;;;;;;;;;;;;;;;3.70;56.73;97654.91;4215079;28;5740;-59
2024/01/11 15:45:45;;;;;;;;;;;;;;;3.64;56.85;97655.44;4218577;28;5781;-59
2024/01/11 15:47:48;;;;;;;;;;;;;;;3.69;57.04;97658.50;4207518;28;5832;-61
2024/01/11 15:49:51;;;;;;;;;;;;;;;3.69;57.08;97658.50;4214518;28;5800;-61
2024/01/11 15:51:55;;;;;;;;;;;;;;;3.78;57.08;97663.78;4215575;28;5819;-63
2024/01/11 15:53:59;;;;;;;;;;;;;;;3.84;56.77;97665.03;4217804;28;5681;-64
2024/01/11 15:56:03;;;;;;;;;;;;;;;3.82;56.89;97666.13;4217391;28;5884;-62
2024/01/11 15:58:05;;;;;;;;;;;;;;;3.79;57.22;97669.84;4213391;28;5665;-79
2024/01/11 16:00:09;;;;;;;;;;;;;;;3.77;57.14;97669.16;4212799;28;5660;-67
2024/01/11 16:02:14;;;;;;;;;;;;;;;3.71;57.13;97667.03;4215319;28;5674;-67
2024/01/11 16:04:18;;;;;;;;;;;;;;;3.68;57.25;97672.53;4215244;28;5689;-65
2024/01/11 16:06:21;;;;;;;;;;;;;;;3.63;57.35;97675.53;4216464;28;5790;-65
2024/01/11 16:08:25;;;;;;;;;;;;;;;3.64;57.24;97678.97;4217184;28;5681;-65
2024/01/11 16:10:30;;;;;;;;;;;;;;;3.62;57.39;97688.72;4212400;28;5110;-68
2024/01/11 16:12:33;;;;;;;;;;;;;;;3.52;57.55;97695.69;4216616;28;7707;-68
2024/01/11 16:14:36;;;;;;;;;;;;;;;3.57;57.55;97696.97;4210716;28;5698;-65
2024/01/11 16:16:39;;;;;;;;;;;;;;;3.67;57.63;97694.41;4212187;28;5939;-67
2024/01/11 16:18:43;;;;;;;;;;;;;;;3.79;57.38;97690.75;4216339;28;5793;-66
2024/01/11 16:20:45;;;;;;;;;;;;;;;3.72;57.03;97687.81;4216455;28;5751;-59
2024/01/11 16:22:49;;;;;;;;;;;;;;;3.61;57.28;97700.13;4217685;28;5847;-61
2024/01/11 16:24:53;;;;;;;;;;;;;;;3.54;57.61;97692.00;4217309;28;5089;-61
2024/01/11 16:26:56;;;;;;;;;;;;;;;3.46;57.60;97690.00;4216182;28;8534;-59
2024/01/11 16:29:00;;;;;;;;;;;;;;;3.57;57.62;97690.91;4202831;28;5733;-60
2024/01/11 16:31:04;;;;;;;;;;;;;;;3.55;57.69;97687.59;4215986;28;5688;-61
2024/01/11 16:33:08;;;;;;;;;;;;;;;3.62;57.56;97691.34;4211710;28;5885;-59
2024/01/11 16:35:11;;;;;;;;;;;;;;;3.74;57.34;97685.09;4217685;28;5677;-60
2024/01/11 16:37:15;;;;;;;;;;;;;;;3.80;57.35;97682.78;4217638;28;5670;-60
2024/01/11 16:39:18;;;;;;;;;;;;;;;3.77;57.17;97687.47;4216651;28;5752;-61
2024/01/11 16:41:21;;;;;;;;;;;;;;;3.73;57.24;97681.63;4212896;28;5774;-61
2024/01/11 16:43:25;;;;;;;;;;;;;;;3.79;57.29;97680.31;4215763;28;5743;-60
2024/01/11 16:45:31;;;;;;;;;;;;;;;3.81;57.04;97691.47;4217409;28;5811;-62
2024/01/11 16:47:36;;;;;;;;;;;;;;;3.72;57.33;97685.22;4217590;28;5703;-61
2024/01/11 16:49:42;;;;;;;;;;;;;;;3.68;57.46;97691.66;4207570;28;5729;-61
2024/01/11 16:51:45;;;;;;;;;;;;;;;3.62;57.56;97675.66;4214878;28;5704;-61
2024/01/11 16:53:52;;;;;;;;;;;;;;;3.68;57.27;97675.16;4210530;28;5677;-70
2024/01/11 16:55:56;;;;;;;;;;;;;;;3.68;57.25;97677.75;4199652;28;5785;-68
2024/01/11 16:57:59;;;;;;;;;;;;;;;3.73;57.22;97681.63;4216325;28;5807;-67
2024/01/11 17:00:07;;;;;;;;;;;;;;;3.71;57.27;97686.16;4215149;28;5752;-68
2024/01/11 17:02:10;;;;;;;;;;;;;;;3.75;57.44;97689.38;4215320;28;7444;-61
2024/01/11 17:04:14;;;;;;;;;;;;;;;3.85;57.43;97682.41;4207490;28;5867;-61
2024/01/11 17:06:18;;;;;;;;;;;;;;;3.87;56.89;97679.66;4212172;28;5688;-60
2024/01/11 17:08:23;;;;;;;;;;;;;;;3.79;57.08;97682.91;4214409;28;7162;-60
2024/01/11 17:10:26;;;;;;;;;;;;;;;3.77;57.18;97687.47;4209994;28;5845;-61
2024/01/11 17:12:29;;;;;;;;;;;;;;;3.68;57.43;97683.81;4210910;28;5875;-61
2024/01/11 17:14:32;;;;;;;;;;;;;;;3.74;57.62;97682.50;4214464;28;5867;-60
2024/01/11 17:16:36;;;;;;;;;;;;;;;3.85;57.43;97685.03;4209195;28;5686;-60
2024/01/11 17:18:39;;;;;;;;;;;;;;;3.79;57.09;97682.91;4213459;28;5681;-60
2024/01/11 17:20:42;;;;;;;;;;;;;;;3.77;57.36;97687.47;4216913;28;5759;-60
2024/01/11 17:22:45;;;;;;;;;;;;;;;3.86;57.51;97688.47;4216161;28;5685;-60
2024/01/11 17:24:49;;;;;;;;;;;;;;;3.88;57.03;97684.75;4208911;28;5653;-61
2024/01/11 17:26:52;;;;;;;;;;;;;;;3.88;57.20;97684.75;4209458;28;5673;-61
2024/01/11 17:28:56;;;;;;;;;;;;;;;3.92;57.05;97696.63;4215843;28;5771;-60
2024/01/11 17:30:59;;;;;;;;;;;;;;;3.84;57.01;97691.19;4213305;28;5701;-61
2024/01/11 17:33:04;;;;;;;;;;;;;;;3.75;57.14;97687.59;4207901;28;5920;-61
2024/01/11 17:35:07;;;;;;;;;;;;;;;3.79;57.39;97682.91;4209292;28;5789;-59